createdAt,value
2022-12-11T00:02:10.734Z,31.90
2022-12-11T00:04:33.622Z,35.47
2022-12-11T00:06:56.469Z,29.50
2022-12-11T00:09:47.250Z,30.10
2022-12-11T00:12:14.947Z,30.53
2022-12-11T00:15:06.930Z,32.20
2022-12-11T00:17:31.188Z,29.57
2022-12-11T00:23:30.311Z,32.90
2022-12-11T00:26:13.179Z,33.17
2022-12-11T00:28:42.140Z,37.63
2022-12-11T00:31:05.764Z,32.40
2022-12-11T00:33:30.911Z,34.63
2022-12-11T00:35:53.485Z,37.20
2022-12-11T00:38:19.670Z,31.57
2022-12-11T00:40:42.252Z,35.90
2022-12-11T00:43:05.213Z,34.97
2022-12-11T00:45:28.327Z,36.73
2022-12-11T00:47:53.958Z,37.33
2022-12-11T00:50:19.754Z,34.13
2022-12-11T00:52:42.442Z,38.23
2022-12-11T00:55:08.228Z,39.90
2022-12-11T00:57:31.478Z,38.70
2022-12-11T00:59:53.982Z,34.37
2022-12-11T01:02:16.746Z,37.63
2022-12-11T01:04:39.363Z,36.80
2022-12-11T01:07:03.328Z,32.97
2022-12-11T01:12:54.585Z,31.83
2022-12-11T01:15:18.858Z,33.43
2022-12-11T01:17:41.315Z,32.17
2022-12-11T01:20:04.693Z,34.30
2022-12-11T01:22:27.262Z,32.17
2022-12-11T01:24:49.899Z,34.33
2022-12-11T01:27:14.872Z,36.87
2022-12-11T01:29:40.440Z,35.03
2022-12-11T01:32:03.274Z,33.90
2022-12-11T01:34:25.934Z,38.67
2022-12-11T01:36:48.752Z,38.77
2022-12-11T01:39:14.618Z,35.73
2022-12-11T01:41:37.214Z,37.13
2022-12-11T01:44:17.934Z,39.83
2022-12-11T01:46:53.716Z,35.10
2022-12-11T01:49:18.679Z,36.10
2022-12-11T01:52:08.960Z,33.20
2022-12-11T01:54:31.700Z,35.20
2022-12-11T01:57:06.142Z,39.40
2022-12-11T01:59:34.319Z,33.47
2022-12-11T02:01:56.919Z,33.53
2022-12-11T02:04:23.582Z,37.30
2022-12-11T02:06:49.195Z,38.67
2022-12-11T02:09:14.233Z,37.80
2022-12-11T02:11:49.158Z,38.67
2022-12-11T02:14:15.265Z,33.70
2022-12-11T02:16:44.213Z,35.93
2022-12-11T02:19:19.485Z,41.97
2022-12-11T02:22:04.799Z,40.87
2022-12-11T02:24:46.489Z,43.70
2022-12-11T02:27:15.128Z,43.10
2022-12-11T02:29:46.991Z,46.93
2022-12-11T02:32:12.061Z,54.33
2022-12-11T02:34:45.338Z,45.17
2022-12-11T02:37:10.609Z,45.93
2022-12-11T02:39:34.607Z,37.97
2022-12-11T02:41:57.420Z,42.60
2022-12-11T02:44:31.605Z,43.73
2022-12-11T02:46:54.875Z,42.97
2022-12-11T02:49:19.556Z,42.67
2022-12-11T02:51:43.147Z,37.00
2022-12-11T02:54:07.363Z,41.80
2022-12-11T02:56:49.117Z,38.70
2022-12-11T02:59:31.051Z,39.80
2022-12-11T03:01:54.482Z,50.57
2022-12-11T03:04:17.350Z,42.53
2022-12-11T03:06:44.563Z,37.83
2022-12-11T03:09:08.369Z,44.93
2022-12-11T03:11:31.140Z,41.37
2022-12-11T03:13:54.085Z,38.93
2022-12-11T03:16:25.705Z,43.77
2022-12-11T03:19:18.069Z,43.47
2022-12-11T03:21:55.859Z,40.70
2022-12-11T03:24:30.024Z,42.37
2022-12-11T03:27:00.967Z,42.63
2022-12-11T03:29:32.694Z,44.40
2022-12-11T03:32:06.315Z,40.57
2022-12-11T03:34:32.515Z,43.70
2022-12-11T03:36:56.665Z,46.63
2022-12-11T03:39:38.652Z,43.57
2022-12-11T03:42:03.104Z,37.70
2022-12-11T03:44:46.951Z,45.93
2022-12-11T03:47:26.971Z,42.70
2022-12-11T03:49:50.617Z,40.97
2022-12-11T03:52:17.085Z,44.73
2022-12-11T03:54:40.861Z,47.20
2022-12-11T03:57:07.453Z,42.47
2022-12-11T03:59:31.065Z,44.30
2022-12-11T04:01:55.914Z,44.90
2022-12-11T04:04:18.962Z,46.30
2022-12-11T04:06:41.825Z,52.83
2022-12-11T04:09:04.581Z,52.37
2022-12-11T04:11:36.390Z,51.00
2022-12-11T04:14:17.563Z,49.40
2022-12-11T04:16:40.239Z,48.20
2022-12-11T04:19:21.618Z,43.67
2022-12-11T04:22:02.916Z,39.30
2022-12-11T04:24:25.417Z,40.33
2022-12-11T04:27:00.791Z,36.60
2022-12-11T04:29:23.629Z,34.30
2022-12-11T04:31:47.309Z,32.70
2022-12-11T04:34:18.955Z,30.63
2022-12-11T04:36:41.594Z,39.03
2022-12-11T04:39:34.161Z,31.63
2022-12-11T04:42:02.134Z,37.27
2022-12-11T04:44:25.991Z,38.53
2022-12-11T04:46:48.498Z,34.60
2022-12-11T04:49:11.400Z,37.50
2022-12-11T04:51:34.379Z,28.90
2022-12-11T04:53:57.465Z,32.37
2022-12-11T04:56:20.610Z,28.27
2022-12-11T04:58:44.581Z,30.70
2022-12-11T05:01:16.806Z,34.20
2022-12-11T05:03:39.578Z,33.73
2022-12-11T05:06:05.816Z,33.90
2022-12-11T05:08:28.882Z,30.63
2022-12-11T05:11:00.469Z,30.27
2022-12-11T05:13:22.878Z,33.63
2022-12-11T05:15:45.325Z,33.30
2022-12-11T05:18:08.419Z,32.70
2022-12-11T05:20:31.173Z,30.87
2022-12-11T05:22:59.695Z,31.27
2022-12-11T05:25:23.099Z,31.27
2022-12-11T05:27:45.885Z,33.53
2022-12-11T05:30:10.125Z,29.53
2022-12-11T05:32:36.017Z,34.17
2022-12-11T05:35:01.357Z,32.50
2022-12-11T05:37:30.306Z,32.83
2022-12-11T05:40:55.902Z,36.57
2022-12-11T05:43:01.763Z,34.27
2022-12-11T05:48:37.532Z,32.53
2022-12-11T05:51:00.959Z,34.00
2022-12-11T05:53:24.320Z,30.73
2022-12-11T05:55:46.921Z,27.70
2022-12-11T05:58:12.767Z,33.13
2022-12-11T06:00:36.303Z,29.20
2022-12-11T06:06:28.342Z,27.90
2022-12-11T06:09:03.374Z,31.47
2022-12-11T06:11:29.668Z,30.93
2022-12-11T06:13:56.146Z,27.17
2022-12-11T06:20:20.589Z,93.43
2022-12-11T06:29:48.046Z,25.40
2022-12-11T06:32:54.567Z,26.27
2022-12-11T06:54:47.307Z,25.43
2022-12-11T06:57:10.783Z,24.60
2022-12-11T06:59:37.968Z,27.00
2022-12-11T07:02:08.543Z,24.87
2022-12-11T07:10:34.622Z,23.07
2022-12-11T07:12:59.939Z,23.77
2022-12-11T07:29:17.103Z,24.50
2022-12-11T07:31:52.192Z,26.00
2022-12-11T07:34:17.660Z,25.93
2022-12-11T07:36:40.709Z,27.13
2022-12-11T07:39:03.769Z,22.37
2022-12-11T07:41:31.453Z,26.13
2022-12-11T07:43:55.228Z,24.87
2022-12-11T07:46:23.807Z,35.37
2022-12-11T07:52:32.019Z,28.63
2022-12-11T07:54:54.860Z,26.47
2022-12-11T07:57:26.738Z,27.47
2022-12-11T07:59:59.200Z,24.93
2022-12-11T08:09:58.367Z,22.97
2022-12-11T08:12:21.228Z,23.60
2022-12-11T08:14:53.480Z,24.63
2022-12-11T08:23:30.687Z,25.50
2022-12-11T08:26:05.623Z,25.53
2022-12-11T08:32:06.393Z,27.53
2022-12-11T08:38:10.125Z,27.97
2022-12-11T08:40:40.558Z,30.10
2022-12-11T08:43:03.617Z,31.13
2022-12-11T08:45:36.688Z,29.27
2022-12-11T08:48:02.170Z,30.83
2022-12-11T08:53:51.753Z,27.90
2022-12-11T09:00:32.928Z,28.33
2022-12-11T09:03:00.835Z,28.63
2022-12-11T09:09:31.256Z,22.10
2022-12-11T09:12:07.542Z,25.17
2022-12-11T09:29:19.296Z,27.13
2022-12-11T09:32:05.091Z,28.67
2022-12-11T09:34:29.570Z,27.43
2022-12-11T09:36:52.428Z,29.30
2022-12-11T09:46:09.814Z,23.73
2022-12-11T09:55:56.470Z,26.23
2022-12-11T09:58:32.823Z,26.27
2022-12-11T10:01:02.884Z,32.20
2022-12-11T10:03:34.151Z,25.50
2022-12-11T10:06:02.669Z,28.87
2022-12-11T10:08:34.300Z,34.33
2022-12-11T10:11:14.342Z,24.13
2022-12-11T10:13:36.604Z,31.17
2022-12-11T10:16:13.321Z,27.67
2022-12-11T10:18:36.499Z,26.63
2022-12-11T10:21:01.810Z,27.60
2022-12-11T10:23:35.681Z,25.20
2022-12-11T10:26:05.188Z,30.53
2022-12-11T10:28:28.210Z,23.67
2022-12-11T10:31:01.212Z,25.93
2022-12-11T10:33:27.438Z,26.83
2022-12-11T10:35:51.852Z,26.27
2022-12-11T10:38:17.028Z,21.00
2022-12-11T10:40:41.105Z,24.07
2022-12-11T10:43:03.919Z,20.70
2022-12-11T10:45:29.157Z,21.80
2022-12-11T10:48:24.236Z,21.23
2022-12-11T10:50:57.232Z,24.03
2022-12-11T10:53:29.308Z,22.00
2022-12-11T10:55:52.571Z,21.97
2022-12-11T10:58:23.503Z,22.23
2022-12-11T11:00:54.035Z,23.50
2022-12-11T11:03:30.067Z,24.30
2022-12-11T11:06:11.693Z,23.80
2022-12-11T11:08:42.616Z,25.00
2022-12-11T11:11:05.872Z,26.87
2022-12-11T11:13:29.905Z,25.13
2022-12-11T11:16:04.147Z,26.37
2022-12-11T11:18:27.799Z,24.63
2022-12-11T11:20:50.460Z,24.40
2022-12-11T11:23:16.987Z,24.17
2022-12-11T11:25:40.580Z,26.70
2022-12-11T11:28:04.970Z,22.67
2022-12-11T11:30:30.062Z,22.93
2022-12-11T11:32:55.074Z,23.03
2022-12-11T11:35:23.119Z,24.20
2022-12-11T11:37:48.123Z,23.87
2022-12-11T11:40:25.401Z,24.37
2022-12-11T11:42:51.549Z,28.00
2022-12-11T11:45:17.266Z,29.00
2022-12-11T11:47:44.399Z,24.37
2022-12-11T11:50:08.981Z,23.60
2022-12-11T11:52:31.551Z,26.63
2022-12-11T11:54:58.490Z,25.03
2022-12-11T11:57:24.787Z,24.00
2022-12-11T12:00:13.560Z,27.77
2022-12-11T12:02:36.719Z,25.60
2022-12-11T12:04:59.380Z,24.50
2022-12-11T12:07:22.402Z,24.17
2022-12-11T12:09:45.018Z,29.93
2022-12-11T12:12:22.952Z,23.50
2022-12-11T12:14:54.817Z,23.53
2022-12-11T12:17:21.008Z,22.10
2022-12-11T12:19:49.395Z,21.27
2022-12-11T12:22:15.031Z,21.63
2022-12-11T12:24:43.385Z,23.60
2022-12-11T12:27:49.897Z,23.77
2022-12-11T12:30:22.414Z,21.40
2022-12-11T12:32:55.226Z,21.20
2022-12-11T12:35:32.780Z,21.20
2022-12-11T12:37:55.476Z,24.33
2022-12-11T12:40:36.037Z,24.07
2022-12-11T12:43:09.424Z,22.67
2022-12-11T12:45:43.904Z,23.60
2022-12-11T12:48:08.852Z,22.23
2022-12-11T12:50:40.366Z,25.10
2022-12-11T12:53:17.707Z,24.37
2022-12-11T12:55:40.844Z,26.23
2022-12-11T12:58:05.289Z,23.17
2022-12-11T13:00:30.504Z,24.37
2022-12-11T13:02:54.169Z,21.67
2022-12-11T13:05:35.263Z,22.47
2022-12-11T13:08:02.342Z,21.10
2022-12-11T13:10:36.023Z,23.13
2022-12-11T13:12:58.926Z,23.13
2022-12-11T13:15:35.750Z,25.40
2022-12-11T13:17:59.018Z,21.40
2022-12-11T13:20:22.875Z,22.90
2022-12-11T13:22:49.375Z,27.63
2022-12-11T13:25:22.088Z,19.90
2022-12-11T13:27:44.354Z,20.97
2022-12-11T13:30:08.699Z,21.60
2022-12-11T13:32:31.380Z,24.27
2022-12-11T13:34:56.680Z,22.23
2022-12-11T13:37:35.629Z,22.23
2022-12-11T13:39:58.269Z,20.13
2022-12-11T13:42:28.651Z,20.97
2022-12-11T13:44:52.002Z,21.70
2022-12-11T13:47:16.227Z,22.50
2022-12-11T13:49:39.695Z,21.43
2022-12-11T13:52:02.571Z,20.87
2022-12-11T13:54:28.271Z,21.83
2022-12-11T13:56:59.848Z,21.83
2022-12-11T13:59:27.094Z,25.20
2022-12-11T14:01:50.419Z,22.93
2022-12-11T14:04:16.587Z,24.13
2022-12-11T14:06:39.763Z,21.43
2022-12-11T14:09:03.531Z,25.60
2022-12-11T14:11:29.970Z,21.90
2022-12-11T14:13:52.211Z,25.77
2022-12-11T14:16:21.946Z,28.33
2022-12-11T14:18:44.287Z,23.47
2022-12-11T14:21:07.326Z,24.07
2022-12-11T14:23:32.777Z,28.00
2022-12-11T14:25:56.603Z,23.17
2022-12-11T14:31:27.208Z,22.17
2022-12-11T14:33:56.230Z,21.40
2022-12-11T14:36:18.800Z,25.77
2022-12-11T14:38:47.736Z,21.20
2022-12-11T14:41:17.334Z,22.30
2022-12-11T14:43:44.025Z,19.87
2022-12-11T14:46:10.973Z,23.43
2022-12-11T14:48:35.939Z,23.97
2022-12-11T14:50:59.840Z,22.57
2022-12-11T14:53:24.360Z,19.00
2022-12-11T14:55:48.115Z,24.17
2022-12-11T14:58:17.663Z,21.87
2022-12-11T15:00:44.179Z,21.23
2022-12-11T15:03:07.990Z,21.77
2022-12-11T15:05:40.399Z,22.63
2022-12-11T15:08:09.072Z,20.87
2022-12-11T15:10:51.660Z,24.53
2022-12-11T15:13:23.625Z,19.23
2022-12-11T15:15:47.153Z,23.53
2022-12-11T15:18:16.940Z,28.07
2022-12-11T15:20:39.728Z,27.60
2022-12-11T15:23:02.519Z,46.23
2022-12-11T15:25:29.647Z,20.73
2022-12-11T15:27:57.073Z,21.47
2022-12-11T15:30:40.843Z,20.40
2022-12-11T15:33:05.088Z,22.10
2022-12-11T15:35:28.370Z,23.17
2022-12-11T15:37:55.056Z,23.70
2022-12-11T15:40:17.747Z,20.90
2022-12-11T15:42:45.290Z,22.77
2022-12-11T15:45:09.358Z,23.80
2022-12-11T15:47:32.221Z,20.30
2022-12-11T15:50:16.911Z,21.37
2022-12-11T15:53:02.662Z,23.37
2022-12-11T15:55:27.894Z,20.77
2022-12-11T16:01:27.566Z,24.03
2022-12-11T16:03:50.501Z,22.07
2022-12-11T16:06:14.340Z,22.53
2022-12-11T16:08:36.627Z,17.73
2022-12-11T16:10:59.316Z,22.00
2022-12-11T16:13:23.060Z,20.63
2022-12-11T16:15:46.459Z,19.73
2022-12-11T16:18:13.603Z,19.03
2022-12-11T16:23:14.749Z,22.20
2022-12-11T16:25:43.828Z,21.17
2022-12-11T16:28:15.609Z,21.27
2022-12-11T16:30:39.648Z,24.97
2022-12-11T16:33:03.827Z,20.03
2022-12-11T16:35:30.425Z,21.73
2022-12-11T16:37:54.470Z,20.87
2022-12-11T16:40:16.915Z,24.43
2022-12-11T16:42:39.231Z,24.83
2022-12-11T16:45:10.352Z,23.03
2022-12-11T16:47:32.893Z,23.87
2022-12-11T16:49:55.665Z,18.77
2022-12-11T16:52:22.107Z,18.20
2022-12-11T16:54:44.768Z,21.87
2022-12-11T16:57:07.007Z,20.77
2022-12-11T16:59:35.148Z,25.57
2022-12-11T17:02:02.296Z,26.10
2022-12-11T17:04:24.570Z,33.60
2022-12-11T17:06:47.043Z,32.00
2022-12-11T17:09:09.233Z,25.63
2022-12-11T17:11:31.991Z,23.27
2022-12-11T17:13:55.320Z,25.50
2022-12-11T17:16:17.672Z,23.33
2022-12-11T17:18:41.402Z,27.67
2022-12-11T17:21:11.518Z,27.97
2022-12-11T17:23:36.863Z,27.60
2022-12-11T17:25:59.370Z,28.83
2022-12-11T17:28:43.160Z,25.43
2022-12-11T17:31:31.606Z,27.13
2022-12-11T17:33:54.712Z,25.93
2022-12-11T17:36:18.767Z,28.37
2022-12-11T17:38:44.250Z,29.07
2022-12-11T17:41:14.249Z,32.27
2022-12-11T17:43:41.254Z,33.30
2022-12-11T17:46:04.490Z,28.37
2022-12-11T17:48:41.171Z,38.97
2022-12-11T17:51:06.711Z,29.63
2022-12-11T17:53:30.722Z,31.57
2022-12-11T17:55:53.967Z,30.73
2022-12-11T17:58:20.545Z,26.47
2022-12-11T18:00:45.073Z,30.33
2022-12-11T18:03:07.855Z,34.40
2022-12-11T18:05:30.041Z,34.53
2022-12-11T18:07:57.440Z,27.93
2022-12-11T18:10:20.343Z,29.53
2022-12-11T18:12:42.762Z,28.53
2022-12-11T18:15:05.792Z,34.07
2022-12-11T18:17:28.193Z,33.37
2022-12-11T18:19:50.452Z,34.13
2022-12-11T18:22:12.741Z,52.87
2022-12-11T18:24:35.025Z,31.23
2022-12-11T18:27:00.165Z,36.03
2022-12-11T18:29:22.606Z,32.43
2022-12-11T18:31:45.978Z,33.80
2022-12-11T18:34:11.635Z,35.10
2022-12-11T18:36:34.372Z,37.07
2022-12-11T18:38:56.879Z,34.07
2022-12-11T18:41:22.817Z,26.83
2022-12-11T18:43:45.688Z,28.77
2022-12-11T18:46:12.890Z,31.70
2022-12-11T18:48:35.382Z,35.40
2022-12-11T18:50:59.128Z,30.17
2022-12-11T18:53:22.717Z,34.23
2022-12-11T18:55:45.699Z,29.97
2022-12-11T18:58:07.991Z,38.40
2022-12-11T19:00:30.316Z,36.33
2022-12-11T19:02:53.970Z,35.87
2022-12-11T19:05:16.287Z,38.67
2022-12-11T19:07:39.191Z,35.63
2022-12-11T19:10:01.728Z,37.00
2022-12-11T19:12:24.389Z,30.90
2022-12-11T19:14:46.852Z,37.83
2022-12-11T19:17:09.500Z,34.10
2022-12-11T19:19:31.700Z,36.77
2022-12-11T19:21:54.159Z,30.37
2022-12-11T19:24:18.212Z,39.53
2022-12-11T19:26:40.666Z,37.03
2022-12-11T19:29:03.092Z,29.80
2022-12-11T19:31:25.638Z,41.73
2022-12-11T19:33:48.205Z,39.17
2022-12-11T19:36:12.519Z,38.03
2022-12-11T19:38:34.972Z,37.50
2022-12-11T19:41:51.779Z,30.87
2022-12-11T19:44:14.182Z,37.03
2022-12-11T19:46:39.823Z,32.37
2022-12-11T19:49:02.510Z,31.80
2022-12-11T19:51:26.428Z,29.70
2022-12-11T19:53:49.867Z,33.97
2022-12-11T19:56:16.172Z,33.30
2022-12-11T19:58:38.901Z,30.20
2022-12-11T20:01:04.632Z,35.40
2022-12-11T20:03:27.427Z,28.73
2022-12-11T20:05:50.056Z,32.97
2022-12-11T20:08:42.963Z,28.10
2022-12-11T20:10:55.543Z,27.50
2022-12-11T20:13:20.876Z,31.80
2022-12-11T20:15:43.850Z,27.73
2022-12-11T20:18:06.564Z,29.30
2022-12-11T20:20:39.111Z,34.27
2022-12-11T20:23:05.241Z,32.70
2022-12-11T20:25:28.239Z,36.27
2022-12-11T20:31:40.934Z,37.93
2022-12-11T20:34:03.730Z,33.90
2022-12-11T20:36:29.100Z,32.97
2022-12-11T20:38:54.765Z,32.63
2022-12-11T20:41:20.110Z,36.93
2022-12-11T20:43:43.089Z,43.70
2022-12-11T20:46:10.114Z,36.53
2022-12-11T20:48:51.629Z,29.50
2022-12-11T20:51:14.961Z,23.60
2022-12-11T20:53:37.960Z,29.93
2022-12-11T20:56:00.632Z,32.20
2022-12-11T20:58:24.019Z,26.83
2022-12-11T21:00:54.056Z,28.43
2022-12-11T21:03:17.219Z,30.63
2022-12-11T21:05:46.607Z,28.83
2022-12-11T21:08:09.341Z,23.63
2022-12-11T21:10:31.632Z,25.63
2022-12-11T21:12:53.939Z,27.43
2022-12-11T21:15:16.668Z,24.87
2022-12-11T21:17:39.242Z,27.20
2022-12-11T21:20:01.594Z,23.73
2022-12-11T21:22:23.976Z,24.43
2022-12-11T21:24:46.343Z,21.33
2022-12-11T21:27:08.922Z,25.47
2022-12-11T21:29:32.095Z,24.57
2022-12-11T21:31:54.618Z,22.13
2022-12-11T21:34:24.871Z,24.67
2022-12-11T21:36:48.179Z,25.70
2022-12-11T21:39:12.114Z,26.30
2022-12-11T21:41:34.658Z,22.83
2022-12-11T21:46:54.743Z,23.90
2022-12-11T21:49:20.689Z,25.80
2022-12-11T21:51:47.400Z,24.70
2022-12-11T21:54:15.702Z,24.03
2022-12-11T21:56:38.315Z,22.80
2022-12-11T21:59:04.078Z,23.87
2022-12-11T22:01:30.853Z,21.43
2022-12-11T22:04:14.194Z,21.70
2022-12-11T22:09:18.590Z,25.37
2022-12-11T22:11:42.024Z,22.90
2022-12-11T22:14:06.926Z,22.73
2022-12-11T22:16:33.753Z,22.40
2022-12-11T22:18:56.402Z,21.07
2022-12-11T22:21:19.280Z,22.27
2022-12-11T22:23:42.420Z,21.30
2022-12-11T22:26:05.168Z,20.57
2022-12-11T22:28:27.563Z,21.37
2022-12-11T22:30:50.273Z,21.40
2022-12-11T22:33:12.633Z,22.40
2022-12-11T22:35:34.947Z,22.03
2022-12-11T22:38:03.092Z,22.17
2022-12-11T22:40:26.759Z,25.40
2022-12-11T22:42:49.024Z,21.80
2022-12-11T22:45:11.766Z,25.07
2022-12-11T22:47:34.585Z,24.40
2022-12-11T22:49:56.980Z,25.17
2022-12-11T22:52:19.654Z,26.30
2022-12-11T22:54:42.946Z,26.53
2022-12-11T22:57:07.059Z,22.70
2022-12-11T22:59:32.347Z,24.20
2022-12-11T23:01:55.024Z,25.50
2022-12-11T23:04:17.472Z,22.13
2022-12-11T23:06:39.927Z,25.23
2022-12-11T23:09:02.439Z,26.13
2022-12-11T23:11:35.421Z,23.50
2022-12-11T23:13:58.249Z,22.77
2022-12-11T23:16:46.967Z,21.77
2022-12-11T23:19:10.310Z,23.23
2022-12-11T23:21:33.644Z,23.47
2022-12-11T23:23:56.837Z,23.83
2022-12-11T23:26:22.301Z,24.53
2022-12-11T23:28:51.278Z,28.10
2022-12-11T23:31:14.453Z,25.33
2022-12-11T23:33:37.666Z,23.67
2022-12-11T23:36:02.363Z,22.27
2022-12-11T23:38:24.648Z,24.33
2022-12-11T23:40:47.187Z,24.97
2022-12-11T23:43:09.526Z,22.33
2022-12-11T23:45:39.238Z,24.47
2022-12-11T23:48:01.727Z,27.47
2022-12-11T23:50:24.279Z,23.53
2022-12-11T23:52:46.473Z,22.57
2022-12-11T23:55:10.337Z,21.40
2022-12-11T23:57:33.117Z,23.60
2022-12-11T23:59:55.360Z,24.97
